createdAt,value
2022-11-16T00:00:30.838Z,98818.50
2022-11-16T00:05:34.327Z,98816.84
2022-11-16T00:10:39.315Z,98824.00
2022-11-16T00:15:42.638Z,98823.75
2022-11-16T00:20:46.282Z,98819.22
2022-11-16T00:25:51.511Z,98825.72
2022-11-16T00:31:00.007Z,98809.56
2022-11-16T00:36:04.381Z,98817.06
2022-11-16T00:41:09.727Z,98823.00
2022-11-16T00:46:13.206Z,98822.97
2022-11-16T00:51:16.733Z,98819.75
2022-11-16T00:56:21.764Z,98824.31
2022-11-16T01:01:25.417Z,98826.03
2022-11-16T01:06:28.894Z,98818.22
2022-11-16T01:11:51.004Z,98821.25
2022-11-16T01:16:54.530Z,98828.16
2022-11-16T01:21:57.953Z,98821.06
2022-11-16T01:27:02.852Z,98820.13
2022-11-16T01:32:06.957Z,98808.13
2022-11-16T01:37:10.707Z,98825.34
2022-11-16T01:42:19.745Z,98826.34
2022-11-16T01:47:23.256Z,98843.34
2022-11-16T01:52:31.498Z,98835.19
2022-11-16T01:57:41.108Z,98832.59
2022-11-16T02:02:44.510Z,98832.88
2022-11-16T02:08:36.453Z,98842.31
2022-11-16T02:13:52.150Z,98837.13
2022-11-16T02:19:08.056Z,98851.78
2022-11-16T02:24:43.999Z,98849.41
2022-11-16T02:29:52.568Z,98861.81
2022-11-16T02:34:59.736Z,98861.69
2022-11-16T02:40:06.505Z,98848.63
2022-11-16T02:45:15.234Z,98848.44
2022-11-16T02:50:23.689Z,98866.88
2022-11-16T02:55:30.076Z,98873.41
2022-11-16T03:00:43.854Z,98873.22
2022-11-16T03:05:51.969Z,98865.97
2022-11-16T03:11:17.315Z,98872.34
2022-11-16T03:16:25.014Z,98878.88
2022-11-16T03:21:34.597Z,98874.91
2022-11-16T03:26:46.972Z,98878.31
2022-11-16T03:31:56.425Z,98876.13
2022-11-16T03:37:01.819Z,98883.94
2022-11-16T03:42:10.144Z,98885.84
2022-11-16T03:47:15.516Z,98898.34
2022-11-16T03:52:19.245Z,98902.53
2022-11-16T03:57:22.767Z,98911.06
2022-11-16T04:02:27.549Z,98909.84
2022-11-16T04:07:47.836Z,98910.78
2022-11-16T04:13:08.661Z,98914.28
2022-11-16T04:18:31.410Z,98912.56
2022-11-16T04:23:52.377Z,98916.81
2022-11-16T04:28:56.046Z,98920.38
2022-11-16T04:34:17.951Z,98919.03
2022-11-16T04:39:21.478Z,98921.81
2022-11-16T04:44:29.900Z,98920.66
2022-11-16T04:49:35.736Z,98918.47
2022-11-16T04:54:39.028Z,98919.94
2022-11-16T04:59:42.503Z,98932.19
2022-11-16T05:04:47.122Z,98922.25
2022-11-16T05:09:51.494Z,98935.47
2022-11-16T05:14:56.177Z,98929.34
2022-11-16T05:20:18.177Z,98946.16
2022-11-16T05:25:21.473Z,98944.03
2022-11-16T05:30:25.167Z,98943.94
2022-11-16T05:35:30.001Z,98946.41
2022-11-16T05:40:34.535Z,98955.88
2022-11-16T05:45:37.863Z,98954.28
2022-11-16T05:50:43.277Z,98966.56
2022-11-16T05:55:46.704Z,98976.16
2022-11-16T06:00:51.386Z,98984.19
2022-11-16T06:05:58.045Z,98978.16
2022-11-16T06:11:03.598Z,98977.81
2022-11-16T06:16:07.507Z,98976.56
2022-11-16T06:21:12.984Z,98978.53
2022-11-16T06:26:16.380Z,98968.34
2022-11-16T06:31:19.936Z,98977.63
2022-11-16T06:36:24.843Z,98962.44
2022-11-16T06:41:28.082Z,98963.50
2022-11-16T06:46:32.412Z,98963.16
2022-11-16T06:51:37.252Z,98951.97
2022-11-16T06:56:40.656Z,98939.38
2022-11-16T07:01:44.239Z,98947.06
2022-11-16T07:06:49.090Z,98947.50
2022-11-16T07:11:52.401Z,98946.94
2022-11-16T07:16:59.762Z,98952.00
2022-11-16T07:22:06.249Z,98951.47
2022-11-16T07:27:09.765Z,98952.75
2022-11-16T07:32:13.318Z,98953.69
2022-11-16T07:37:18.233Z,98941.16
2022-11-16T07:42:21.604Z,98951.75
2022-11-16T07:47:25.256Z,98952.69
2022-11-16T07:52:29.921Z,98950.22
2022-11-16T07:57:33.458Z,98946.03
2022-11-16T08:02:37.017Z,98955.97
2022-11-16T08:07:41.880Z,98964.34
2022-11-16T08:12:45.379Z,98968.03
2022-11-16T08:17:48.948Z,98966.03
2022-11-16T08:22:53.520Z,98965.94
2022-11-16T08:27:57.779Z,98974.78
2022-11-16T08:33:01.018Z,98972.94
2022-11-16T08:38:05.678Z,98978.94
2022-11-16T08:43:11.144Z,98977.41
2022-11-16T08:48:14.789Z,98980.06
2022-11-16T08:53:19.715Z,98968.50
2022-11-16T08:58:23.344Z,98963.72
2022-11-16T09:03:26.752Z,98977.47
2022-11-16T09:08:32.014Z,98977.25
2022-11-16T09:13:35.571Z,98965.56
2022-11-16T09:18:39.384Z,98976.53
2022-11-16T09:23:44.288Z,98978.50
2022-11-16T09:28:47.720Z,98980.88
2022-11-16T09:33:51.332Z,98971.19
2022-11-16T09:39:29.095Z,98963.81
2022-11-16T09:44:39.075Z,98981.88
2022-11-16T09:49:48.928Z,98976.63
2022-11-16T09:54:56.290Z,98974.88
2022-11-16T10:00:03.616Z,98972.38
2022-11-16T10:05:15.750Z,98971.44
2022-11-16T10:10:33.538Z,98973.22
2022-11-16T10:15:49.685Z,98975.13
2022-11-16T10:21:10.970Z,98980.78
2022-11-16T10:26:26.703Z,98979.88
2022-11-16T10:31:42.617Z,98987.66
2022-11-16T10:36:46.845Z,98994.09
2022-11-16T10:41:52.249Z,99001.50
2022-11-16T10:47:03.844Z,98997.50
2022-11-16T10:52:10.917Z,98999.31
2022-11-16T10:57:17.034Z,98985.41
2022-11-16T11:02:38.010Z,98991.66
2022-11-16T11:07:41.518Z,98983.09
2022-11-16T11:13:04.193Z,98980.22
2022-11-16T11:18:19.461Z,98994.03
2022-11-16T11:23:25.248Z,98984.91
2022-11-16T11:28:32.011Z,98984.88
2022-11-16T11:33:38.427Z,98990.56
2022-11-16T11:38:59.303Z,98971.56
2022-11-16T11:44:06.001Z,98969.06
2022-11-16T11:49:17.983Z,98972.31
2022-11-16T11:54:26.980Z,98963.22
2022-11-16T11:59:32.137Z,98970.69
2022-11-16T12:05:12.053Z,98976.91
2022-11-16T12:10:23.105Z,98980.06
2022-11-16T12:15:58.913Z,98972.88
2022-11-16T12:21:11.206Z,98972.59
2022-11-16T12:26:20.410Z,98963.19
2022-11-16T12:31:49.188Z,98962.75
2022-11-16T12:37:01.278Z,98959.78
2022-11-16T12:42:31.093Z,98960.78
2022-11-16T12:47:49.079Z,98972.59
2022-11-16T12:53:23.848Z,98973.03
2022-11-16T12:58:43.251Z,98980.50
2022-11-16T13:03:54.105Z,98937.13
2022-11-16T13:09:04.628Z,98970.19
2022-11-16T13:14:15.359Z,98967.50
2022-11-16T13:19:21.299Z,98972.22
2022-11-16T13:24:34.386Z,98971.59
2022-11-16T13:29:44.593Z,98971.25
2022-11-16T13:34:50.721Z,98971.53
2022-11-16T13:40:22.897Z,98973.72
2022-11-16T13:45:32.315Z,98973.94
2022-11-16T13:50:39.978Z,98976.25
2022-11-16T13:55:46.350Z,98984.13
2022-11-16T14:00:59.065Z,98988.22
2022-11-16T14:06:03.962Z,98978.59
2022-11-16T14:11:27.050Z,98997.34
2022-11-16T14:16:49.144Z,99004.13
2022-11-16T14:22:03.359Z,98999.47
2022-11-16T14:27:16.375Z,99011.78
2022-11-16T14:32:24.605Z,99001.81
2022-11-16T14:37:35.240Z,99009.06
2022-11-16T14:43:14.949Z,99008.88
2022-11-16T14:48:18.148Z,99015.63
2022-11-16T14:53:21.992Z,99013.63
2022-11-16T14:58:25.354Z,99016.69
2022-11-16T15:03:34.941Z,99014.34
2022-11-16T15:08:44.606Z,99015.75
2022-11-16T15:13:49.322Z,99011.84
2022-11-16T15:19:01.278Z,99010.75
2022-11-16T15:29:28.045Z,99011.03
2022-11-16T15:34:33.571Z,99002.38
2022-11-16T15:39:37.999Z,99007.00
2022-11-16T15:44:42.267Z,98998.28
2022-11-16T15:49:54.145Z,99000.31
2022-11-16T15:55:04.972Z,98995.31
2022-11-16T16:00:23.993Z,99005.63
2022-11-16T16:05:37.312Z,99001.78
2022-11-16T16:10:41.137Z,99005.25
2022-11-16T16:15:44.527Z,99001.56
2022-11-16T16:20:50.805Z,99000.94
2022-11-16T16:25:54.209Z,98993.66
2022-11-16T16:30:59.397Z,98995.50
2022-11-16T16:36:05.041Z,98995.22
2022-11-16T16:41:09.593Z,98992.34
2022-11-16T16:46:14.295Z,98988.63
2022-11-16T16:51:18.904Z,98976.66
2022-11-16T16:56:22.694Z,98974.09
2022-11-16T17:01:26.947Z,98974.16
2022-11-16T17:06:31.918Z,98968.72
2022-11-16T17:11:35.037Z,98974.53
2022-11-16T17:16:38.779Z,98973.44
2022-11-16T17:21:45.056Z,98971.63
2022-11-16T17:26:49.006Z,98965.44
2022-11-16T17:31:52.730Z,98955.13
2022-11-16T17:36:57.786Z,98956.28
2022-11-16T17:42:01.629Z,98944.75
2022-11-16T17:47:04.894Z,98942.88
2022-11-16T17:52:10.324Z,98944.34
2022-11-16T17:57:14.114Z,98938.59
2022-11-16T18:02:17.677Z,98933.75
2022-11-16T18:07:23.287Z,98938.59
2022-11-16T18:12:27.261Z,98940.47
2022-11-16T18:17:35.150Z,98937.97
2022-11-16T18:22:39.821Z,98930.59
2022-11-16T18:27:43.339Z,98932.97
2022-11-16T18:32:46.976Z,98924.81
2022-11-16T18:37:52.184Z,98919.59
2022-11-16T18:42:55.805Z,98925.63
2022-11-16T18:47:59.304Z,98907.84
2022-11-16T18:53:04.609Z,98921.53
2022-11-16T18:58:22.806Z,98916.03
2022-11-16T19:03:32.643Z,98908.09
2022-11-16T19:08:38.997Z,98905.91
2022-11-16T19:13:43.885Z,98907.88
2022-11-16T19:18:47.278Z,98905.44
2022-11-16T19:23:54.217Z,98903.06
2022-11-16T19:28:57.452Z,98890.38
2022-11-16T19:34:02.558Z,98895.13
2022-11-16T19:39:07.681Z,98894.31
2022-11-16T19:44:11.251Z,98895.53
2022-11-16T19:49:20.131Z,98892.19
2022-11-16T19:54:25.107Z,98889.88
2022-11-16T19:59:28.623Z,98890.38
2022-11-16T20:04:33.865Z,98886.16
2022-11-16T20:09:38.546Z,98893.22
2022-11-16T20:14:41.985Z,98879.78
2022-11-16T20:19:47.206Z,98877.22
2022-11-16T20:24:52.202Z,98854.25
2022-11-16T20:29:55.794Z,98867.03
2022-11-16T20:34:59.218Z,98863.69
2022-11-16T20:40:04.136Z,98862.31
2022-11-16T20:45:09.067Z,98865.16
2022-11-16T20:50:12.308Z,98866.19
2022-11-16T20:55:17.080Z,98861.84
2022-11-16T21:00:20.777Z,98866.25
2022-11-16T21:05:24.204Z,98863.47
2022-11-16T21:10:28.906Z,98863.09
2022-11-16T21:15:32.359Z,98857.16
2022-11-16T21:20:35.631Z,98850.84
2022-11-16T21:25:40.321Z,98844.47
2022-11-16T21:30:43.535Z,98843.53
2022-11-16T21:35:46.899Z,98844.84
2022-11-16T21:40:51.861Z,98834.88
2022-11-16T21:46:03.153Z,98833.06
2022-11-16T21:51:08.590Z,98832.13
2022-11-16T21:56:15.785Z,98820.34
2022-11-16T22:01:19.344Z,98823.31
2022-11-16T22:06:40.300Z,98810.84
2022-11-16T22:11:44.927Z,98822.44
2022-11-16T22:16:48.362Z,98827.06
2022-11-16T22:21:51.847Z,98817.84
2022-11-16T22:26:56.594Z,98810.44
2022-11-16T22:32:00.105Z,98809.06
2022-11-16T22:37:03.726Z,98813.88
2022-11-16T22:42:08.681Z,98813.00
2022-11-16T22:47:12.183Z,98797.47
2022-11-16T22:52:15.598Z,98800.66
2022-11-16T22:57:20.558Z,98788.31
2022-11-16T23:02:23.836Z,98790.25
2022-11-16T23:07:27.167Z,98782.59
2022-11-16T23:12:49.379Z,98775.84
2022-11-16T23:17:52.852Z,98774.84
2022-11-16T23:23:09.953Z,98768.13
2022-11-16T23:28:17.592Z,98768.91
2022-11-16T23:33:41.365Z,98766.91
2022-11-16T23:38:44.879Z,98759.63
2022-11-16T23:44:01.596Z,98752.91
2022-11-16T23:49:04.923Z,98761.50
2022-11-16T23:54:08.163Z,98759.06
2022-11-16T23:59:13.252Z,98755.09
